createdAt,value
2023-08-12T00:01:00.448Z,0
2023-08-12T00:02:14.741Z,0
2023-08-12T00:03:29.034Z,0
2023-08-12T00:04:43.326Z,0
2023-08-12T00:05:57.618Z,0
2023-08-12T00:07:11.911Z,0
2023-08-12T00:08:26.203Z,0
2023-08-12T00:09:40.496Z,0
2023-08-12T00:10:53.804Z,0
2023-08-12T00:12:08.097Z,0
2023-08-12T00:13:22.389Z,0
2023-08-12T00:14:36.678Z,0
2023-08-12T00:15:50.974Z,0
2023-08-12T00:17:05.267Z,0
2023-08-12T00:18:19.559Z,0
2023-08-12T00:19:33.852Z,0
2023-08-12T00:20:48.144Z,0
2023-08-12T00:22:02.436Z,0
2023-08-12T00:23:16.729Z,0
2023-08-12T00:24:31.022Z,0
2023-08-12T00:25:45.314Z,0
2023-08-12T00:26:58.623Z,0
2023-08-12T00:28:12.915Z,0
2023-08-12T00:29:27.208Z,0
2023-08-12T00:30:41.501Z,0
2023-08-12T00:31:55.793Z,0
2023-08-12T00:33:10.086Z,0
2023-08-12T00:34:24.378Z,0
2023-08-12T00:35:38.671Z,0
2023-08-12T00:36:52.963Z,0
2023-08-12T00:38:07.256Z,0
2023-08-12T00:39:21.548Z,0
2023-08-12T00:40:35.841Z,0
2023-08-12T00:41:50.133Z,0
2023-08-12T00:43:03.442Z,0
2023-08-12T00:44:17.734Z,0
2023-08-12T00:45:32.026Z,0
2023-08-12T00:46:46.319Z,0
2023-08-12T00:48:00.612Z,0
2023-08-12T00:49:14.904Z,0
2023-08-12T00:50:29.196Z,0
2023-08-12T00:51:43.489Z,0
2023-08-12T00:52:57.782Z,0
2023-08-12T00:54:12.075Z,0
2023-08-12T00:55:26.367Z,0
2023-08-12T00:56:40.660Z,0
2023-08-12T00:57:54.952Z,0
2023-08-12T00:59:08.261Z,0
2023-08-12T01:00:22.553Z,0
2023-08-12T01:01:36.846Z,0
2023-08-12T01:02:51.138Z,0
2023-08-12T01:04:05.431Z,0
2023-08-12T01:05:19.723Z,0
2023-08-12T01:06:34.016Z,0
2023-08-12T01:07:48.309Z,0
2023-08-12T01:09:02.601Z,0
2023-08-12T01:10:16.894Z,0
2023-08-12T01:11:31.186Z,0
2023-08-12T01:12:45.479Z,0
2023-08-12T01:13:59.771Z,0
2023-08-12T01:15:13.080Z,0
2023-08-12T01:16:27.372Z,0
2023-08-12T01:17:41.665Z,0
2023-08-12T01:18:55.957Z,0
2023-08-12T01:20:10.250Z,0
2023-08-12T01:21:24.542Z,0
2023-08-12T01:22:38.835Z,0
2023-08-12T01:23:53.127Z,0
2023-08-12T01:25:07.420Z,0
2023-08-12T01:26:21.712Z,0
2023-08-12T01:27:36.005Z,0
2023-08-12T01:28:50.297Z,0
2023-08-12T01:30:04.590Z,0
2023-08-12T01:31:17.899Z,0
2023-08-12T01:32:32.191Z,0
2023-08-12T01:33:46.484Z,0
2023-08-12T01:35:00.776Z,0
2023-08-12T01:36:15.068Z,0
2023-08-12T01:37:29.361Z,0
2023-08-12T01:38:43.653Z,0
2023-08-12T01:39:57.947Z,0
2023-08-12T01:41:12.241Z,0
2023-08-12T01:42:26.533Z,0
2023-08-12T01:43:40.825Z,0
2023-08-12T01:44:55.118Z,0
2023-08-12T01:46:09.410Z,0
2023-08-12T01:47:22.719Z,0
2023-08-12T01:48:37.012Z,0
2023-08-12T01:49:51.304Z,0
2023-08-12T01:51:05.597Z,0
2023-08-12T01:52:19.889Z,0
2023-08-12T01:53:34.182Z,0
2023-08-12T01:54:48.474Z,0
2023-08-12T01:56:02.767Z,0
2023-08-12T01:57:17.059Z,0
2023-08-12T01:58:31.352Z,0
2023-08-12T01:59:45.644Z,0
2023-08-12T02:00:59.937Z,0
2023-08-12T02:02:14.230Z,0
2023-08-12T02:03:27.538Z,0
2023-08-12T02:04:41.832Z,0
2023-08-12T02:05:56.124Z,0
2023-08-12T02:07:10.417Z,0
2023-08-12T02:08:24.709Z,0
2023-08-12T02:09:39.002Z,0
2023-08-12T02:10:53.294Z,0
2023-08-12T02:12:07.587Z,0
2023-08-12T02:13:21.879Z,0
2023-08-12T02:14:36.172Z,0
2023-08-12T02:15:50.464Z,0
2023-08-12T02:17:04.757Z,0
2023-08-12T02:18:19.049Z,0
2023-08-12T02:19:32.358Z,0
2023-08-12T02:20:46.650Z,0
2023-08-12T02:22:00.943Z,0
2023-08-12T02:23:15.235Z,0
2023-08-12T02:24:29.528Z,0
2023-08-12T02:25:43.820Z,0
2023-08-12T02:26:58.113Z,0
2023-08-12T02:28:12.406Z,0
2023-08-12T02:29:26.699Z,0
2023-08-12T02:30:40.991Z,0
2023-08-12T02:31:55.283Z,0
2023-08-12T02:33:09.576Z,0
2023-08-12T02:34:23.869Z,0
2023-08-12T02:35:37.177Z,0
2023-08-12T02:36:51.470Z,0
2023-08-12T02:38:05.762Z,0
2023-08-12T02:39:20.055Z,0
2023-08-12T02:40:34.347Z,0
2023-08-12T02:41:48.640Z,0
2023-08-12T02:43:01.953Z,0
2023-08-12T02:44:16.246Z,0
2023-08-12T02:45:30.539Z,0
2023-08-12T02:46:44.831Z,0
2023-08-12T02:47:59.123Z,0
2023-08-12T02:49:13.416Z,0
2023-08-12T02:50:27.708Z,0
2023-08-12T02:51:42.001Z,0
2023-08-12T02:52:56.293Z,0
2023-08-12T02:54:10.588Z,0
2023-08-12T02:55:24.879Z,0
2023-08-12T02:56:39.171Z,0
2023-08-12T02:57:53.464Z,0
2023-08-12T02:59:06.772Z,0
2023-08-12T03:00:21.065Z,0
2023-08-12T03:01:35.357Z,0
2023-08-12T03:02:49.649Z,0
2023-08-12T03:04:03.942Z,0
2023-08-12T03:05:18.234Z,0
2023-08-12T03:06:32.527Z,0
2023-08-12T03:07:46.820Z,0
2023-08-12T03:09:01.112Z,0
2023-08-12T03:10:15.405Z,0
2023-08-12T03:11:29.697Z,0
2023-08-12T03:12:43.936Z,1
2023-08-12T03:13:58.228Z,0
2023-08-12T03:15:11.537Z,0
2023-08-12T03:16:25.787Z,1
2023-08-12T03:17:40.025Z,1
2023-08-12T03:18:54.318Z,0
2023-08-12T03:20:08.611Z,0
2023-08-12T03:21:22.861Z,2
2023-08-12T03:22:37.099Z,1
2023-08-12T03:23:51.393Z,0
2023-08-12T03:25:05.643Z,1
2023-08-12T03:26:19.881Z,1
2023-08-12T03:27:34.120Z,2
2023-08-12T03:28:48.358Z,5
2023-08-12T03:30:02.597Z,7
2023-08-12T03:31:15.852Z,5
2023-08-12T03:32:30.090Z,6
2023-08-12T03:33:44.329Z,5
2023-08-12T03:34:58.567Z,6
2023-08-12T03:36:12.806Z,9
2023-08-12T03:37:27.044Z,16
2023-08-12T03:38:41.283Z,19
2023-08-12T03:39:55.521Z,23
2023-08-12T03:41:09.760Z,26
2023-08-12T03:42:23.998Z,28
2023-08-12T03:43:38.237Z,38
2023-08-12T03:44:52.475Z,23
2023-08-12T03:46:06.714Z,21
2023-08-12T03:47:19.968Z,32
2023-08-12T03:48:34.207Z,55
2023-08-12T03:49:48.446Z,74
2023-08-12T03:51:02.684Z,84
2023-08-12T03:52:16.923Z,80
2023-08-12T03:53:31.161Z,79
2023-08-12T03:54:45.400Z,85
2023-08-12T03:55:59.638Z,96
2023-08-12T03:57:13.878Z,106
2023-08-12T03:58:28.116Z,120
2023-08-12T03:59:42.355Z,126
2023-08-12T04:00:56.594Z,138
2023-08-12T04:02:10.832Z,151
2023-08-12T04:03:24.087Z,166
2023-08-12T04:04:38.325Z,178
2023-08-12T04:05:52.564Z,193
2023-08-12T04:07:06.802Z,204
2023-08-12T04:08:21.041Z,214
2023-08-12T04:09:35.279Z,229
2023-08-12T04:10:49.518Z,247
2023-08-12T04:12:03.757Z,263
2023-08-12T04:13:17.995Z,283
2023-08-12T04:14:32.234Z,300
2023-08-12T04:15:46.473Z,316
2023-08-12T04:17:00.711Z,331
2023-08-12T04:18:14.949Z,351
2023-08-12T04:19:28.204Z,368
2023-08-12T04:20:42.443Z,378
2023-08-12T04:21:56.682Z,401
2023-08-12T04:23:10.920Z,425
2023-08-12T04:24:25.159Z,440
2023-08-12T04:25:39.397Z,458
2023-08-12T04:26:53.636Z,479
2023-08-12T04:28:07.874Z,506
2023-08-12T04:29:22.112Z,530
2023-08-12T04:30:36.351Z,556
2023-08-12T04:31:50.590Z,580
2023-08-12T04:33:04.828Z,605
2023-08-12T04:34:19.067Z,636
2023-08-12T04:35:32.321Z,659
2023-08-12T04:36:46.560Z,695
2023-08-12T04:38:00.798Z,721
2023-08-12T04:39:15.037Z,747
2023-08-12T04:40:29.275Z,786
2023-08-12T04:41:43.514Z,811
2023-08-12T04:42:57.753Z,848
2023-08-12T04:44:11.992Z,877
2023-08-12T04:45:26.231Z,902
2023-08-12T04:46:40.469Z,933
2023-08-12T04:47:54.708Z,956
2023-08-12T04:49:08.946Z,986
2023-08-12T04:50:23.185Z,1002
2023-08-12T04:51:36.439Z,1023
2023-08-12T04:52:50.678Z,1057
2023-08-12T04:54:04.917Z,1076
2023-08-12T04:55:19.155Z,1112
2023-08-12T04:56:33.394Z,1145
2023-08-12T04:57:47.632Z,1175
2023-08-12T04:59:01.870Z,1203
2023-08-12T05:00:16.105Z,1244
2023-08-12T05:01:30.347Z,1267
2023-08-12T05:02:44.586Z,1304
2023-08-12T05:03:58.825Z,1320
2023-08-12T05:05:13.063Z,1348
2023-08-12T05:06:27.302Z,1355
2023-08-12T05:07:40.556Z,1378
2023-08-12T05:08:54.795Z,1391
2023-08-12T05:10:09.033Z,1410
2023-08-12T05:11:23.272Z,1441
2023-08-12T05:12:37.510Z,1472
2023-08-12T05:13:51.749Z,1493
2023-08-12T05:15:05.987Z,1513
2023-08-12T05:16:20.226Z,1545
2023-08-12T05:17:34.465Z,1524
2023-08-12T05:18:48.703Z,1584
2023-08-12T05:20:02.943Z,1619
2023-08-12T05:21:17.181Z,1624
2023-08-12T05:22:31.419Z,1621
2023-08-12T05:23:44.674Z,1611
2023-08-12T05:24:58.913Z,1703
2023-08-12T05:26:13.151Z,1717
2023-08-12T05:27:27.390Z,1666
2023-08-12T05:28:41.628Z,1654
2023-08-12T05:29:55.867Z,1639
2023-08-12T05:31:10.105Z,1624
2023-08-12T05:32:24.344Z,1632
2023-08-12T05:33:38.582Z,1639
2023-08-12T05:34:52.821Z,1661
2023-08-12T05:36:07.060Z,1672
2023-08-12T05:37:21.298Z,1688
2023-08-12T05:38:35.537Z,1714
2023-08-12T05:39:48.791Z,1737
2023-08-12T05:41:03.030Z,1753
2023-08-12T05:42:17.268Z,1776
2023-08-12T05:43:31.507Z,1786
2023-08-12T05:44:45.745Z,1753
2023-08-12T05:45:59.984Z,1809
2023-08-12T05:47:14.223Z,1679
2023-08-12T05:48:28.461Z,1965
2023-08-12T05:49:42.700Z,1823
2023-08-12T05:50:56.938Z,1780
2023-08-12T05:52:11.177Z,1774
2023-08-12T05:53:25.415Z,1738
2023-08-12T05:54:39.654Z,1747
2023-08-12T05:55:52.908Z,1725
2023-08-12T05:57:07.147Z,1679
2023-08-12T05:58:21.386Z,1758
2023-08-12T05:59:35.624Z,1421
2023-08-12T06:00:49.863Z,2210
2023-08-12T06:02:04.101Z,2081
2023-08-12T06:03:18.340Z,2054
2023-08-12T06:04:32.578Z,1954
2023-08-12T06:05:46.817Z,1133
2023-08-12T06:07:01.055Z,1897
2023-08-12T06:08:15.294Z,3000
2023-08-12T06:09:29.533Z,2649
2023-08-12T06:10:43.772Z,2901
2023-08-12T06:11:57.027Z,3144
2023-08-12T06:13:11.265Z,3266
2023-08-12T06:15:39.742Z,3414
2023-08-12T06:16:53.981Z,3651
2023-08-12T06:18:08.219Z,3761
2023-08-12T06:19:22.458Z,3882
2023-08-12T06:20:36.697Z,3987
2023-08-12T06:21:50.935Z,4256
2023-08-12T06:23:05.174Z,4311
2023-08-12T06:24:19.412Z,4464
2023-08-12T06:25:33.651Z,5595
2023-08-12T06:26:47.889Z,4482
2023-08-12T06:28:01.144Z,5272
2023-08-12T06:29:15.382Z,5020
2023-08-12T06:30:29.621Z,4573
2023-08-12T06:31:43.860Z,3077
2023-08-12T06:32:58.098Z,2875
2023-08-12T06:34:12.336Z,6846
2023-08-12T06:35:26.575Z,4298
2023-08-12T06:36:40.813Z,3640
2023-08-12T06:37:55.052Z,5424
2023-08-12T06:39:09.290Z,3404
2023-08-12T06:40:23.529Z,2524
2023-08-12T06:41:37.768Z,4279
2023-08-12T06:42:52.006Z,5553
2023-08-12T06:44:05.261Z,4666
2023-08-12T06:45:19.500Z,3498
2023-08-12T06:46:33.739Z,3427
2023-08-12T06:47:47.978Z,5589
2023-08-12T06:49:02.216Z,3474
2023-08-12T06:50:16.455Z,3361
2023-08-12T06:51:29.715Z,3268
2023-08-12T06:52:43.954Z,3456
2023-08-12T06:53:58.193Z,3290
2023-08-12T06:55:12.431Z,3227
2023-08-12T06:56:26.670Z,3246
2023-08-12T06:57:40.908Z,3197
2023-08-12T06:58:55.147Z,2941
2023-08-12T07:00:09.385Z,3306
2023-08-12T07:01:23.624Z,3569
2023-08-12T07:02:37.863Z,3470
2023-08-12T07:03:52.101Z,3638
2023-08-12T07:05:06.340Z,3326
2023-08-12T07:06:20.578Z,3133
2023-08-12T07:07:33.833Z,3585
2023-08-12T07:08:48.072Z,3066
2023-08-12T07:10:02.311Z,3837
2023-08-12T07:11:16.550Z,3554
2023-08-12T07:12:30.788Z,3128
2023-08-12T07:13:45.027Z,3048
2023-08-12T07:14:59.266Z,3581
2023-08-12T07:16:13.504Z,3003
2023-08-12T07:17:27.743Z,2864
2023-08-12T07:18:41.981Z,2814
2023-08-12T07:19:56.220Z,2717
2023-08-12T07:21:10.458Z,2650
2023-08-12T07:22:24.697Z,2567
2023-08-12T07:23:37.951Z,2544
2023-08-12T07:24:52.190Z,2466
2023-08-12T07:26:06.428Z,2457
2023-08-12T07:27:20.667Z,2418
2023-08-12T07:28:34.905Z,2389
2023-08-12T07:29:49.144Z,2358
2023-08-12T07:31:03.382Z,2321
2023-08-12T07:32:17.621Z,2283
2023-08-12T07:33:31.859Z,2233
2023-08-12T07:34:46.098Z,2173
2023-08-12T07:36:00.337Z,2106
2023-08-12T07:37:14.575Z,2050
2023-08-12T07:38:28.814Z,2000
2023-08-12T07:39:42.068Z,1960
2023-08-12T07:40:56.307Z,1923
2023-08-12T07:42:10.545Z,1882
2023-08-12T07:43:24.783Z,1922
2023-08-12T07:44:39.022Z,1981
2023-08-12T07:45:53.261Z,1967
2023-08-12T07:47:07.499Z,2099
2023-08-12T07:48:21.738Z,2084
2023-08-12T07:49:35.976Z,2097
2023-08-12T07:50:50.215Z,2163
2023-08-12T07:52:04.453Z,2131
2023-08-12T07:53:18.692Z,2198
2023-08-12T07:54:32.930Z,2149
2023-08-12T07:55:46.185Z,2164
2023-08-12T07:57:00.424Z,2201
2023-08-12T07:58:14.662Z,2300
2023-08-12T07:59:28.901Z,2433
2023-08-12T08:00:43.139Z,2567
2023-08-12T08:01:57.378Z,2743
2023-08-12T08:03:11.616Z,2911
2023-08-12T08:04:25.855Z,3123
2023-08-12T08:05:40.093Z,3369
2023-08-12T08:06:54.332Z,3618
2023-08-12T08:08:08.571Z,3933
2023-08-12T08:09:22.809Z,4064
2023-08-12T08:10:37.048Z,4343
2023-08-12T08:11:50.302Z,4809
2023-08-12T08:13:04.541Z,5046
2023-08-12T08:14:18.779Z,4829
2023-08-12T08:15:33.018Z,4605
2023-08-12T08:16:47.257Z,4376
2023-08-12T08:18:01.496Z,4178
2023-08-12T08:19:15.734Z,3958
2023-08-12T08:20:29.973Z,3737
2023-08-12T08:21:44.212Z,3591
2023-08-12T08:22:58.450Z,3526
2023-08-12T08:24:12.689Z,3445
2023-08-12T08:25:26.927Z,3221
2023-08-12T08:26:41.166Z,3074
2023-08-12T08:27:54.421Z,3003
2023-08-12T08:29:08.660Z,3050
2023-08-12T08:30:22.898Z,3162
2023-08-12T08:31:37.137Z,3273
2023-08-12T08:32:51.376Z,3300
2023-08-12T08:34:05.614Z,3269
2023-08-12T08:35:19.853Z,3175
2023-08-12T08:36:34.092Z,3125
2023-08-12T08:37:48.330Z,3106
2023-08-12T08:39:02.569Z,3072
2023-08-12T08:40:16.808Z,3003
2023-08-12T08:41:31.046Z,2892
2023-08-12T08:42:45.285Z,2749
2023-08-12T08:43:58.540Z,2592
2023-08-12T08:45:12.778Z,2413
2023-08-12T08:46:27.017Z,2227
2023-08-12T08:47:41.256Z,2075
2023-08-12T08:48:55.494Z,1965
2023-08-12T08:50:09.733Z,1942
2023-08-12T08:51:23.972Z,1899
2023-08-12T08:52:38.211Z,1839
2023-08-12T08:53:52.449Z,1770
2023-08-12T08:55:06.688Z,1671
2023-08-12T08:56:20.926Z,1574
2023-08-12T08:57:35.165Z,1502
2023-08-12T08:58:49.404Z,1454
2023-08-12T09:00:02.658Z,1403
2023-08-12T09:01:16.897Z,1382
2023-08-12T09:02:31.136Z,1370
2023-08-12T09:03:45.375Z,1373
2023-08-12T09:04:59.613Z,1392
2023-08-12T09:06:13.852Z,1425
2023-08-12T09:07:28.091Z,1481
2023-08-12T09:08:42.329Z,1546
2023-08-12T09:09:56.568Z,1642
2023-08-12T09:11:10.807Z,1722
2023-08-12T09:12:25.045Z,1833
2023-08-12T09:13:39.284Z,2016
2023-08-12T09:14:53.523Z,2275
2023-08-12T09:16:06.777Z,2554
2023-08-12T09:17:21.016Z,2861
2023-08-12T09:18:35.255Z,3238
2023-08-12T09:19:49.493Z,3654
2023-08-12T09:21:03.732Z,4130
2023-08-12T09:22:17.971Z,4577
2023-08-12T09:23:32.210Z,5055
2023-08-12T09:24:46.448Z,5380
2023-08-12T09:26:00.687Z,5739
2023-08-12T09:27:14.925Z,5953
2023-08-12T09:28:29.164Z,6088
2023-08-12T09:29:43.403Z,6197
2023-08-12T09:30:57.641Z,5792
2023-08-12T09:32:10.896Z,6986
2023-08-12T09:33:25.135Z,4008
2023-08-12T09:34:39.374Z,9533
2023-08-12T09:35:53.612Z,6800
2023-08-12T09:37:07.851Z,6258
2023-08-12T09:38:22.090Z,6886
2023-08-12T09:39:36.328Z,6779
2023-08-12T09:40:50.567Z,6656
2023-08-12T09:42:04.806Z,6544
2023-08-12T09:43:19.045Z,6396
2023-08-12T09:44:33.283Z,6395
2023-08-12T09:45:47.522Z,6324
2023-08-12T09:47:01.760Z,6097
2023-08-12T09:48:15.015Z,5733
2023-08-12T09:49:29.254Z,5307
2023-08-12T09:50:43.492Z,4933
2023-08-12T09:51:57.731Z,4535
2023-08-12T09:53:11.969Z,4272
2023-08-12T09:54:26.208Z,4148
2023-08-12T09:55:40.447Z,4121
2023-08-12T09:56:54.685Z,4157
2023-08-12T09:58:08.925Z,4246
2023-08-12T09:59:23.163Z,4417
2023-08-12T10:00:37.402Z,4681
2023-08-12T10:01:51.640Z,4988
2023-08-12T10:03:05.879Z,5201
2023-08-12T10:04:19.134Z,5365
2023-08-12T10:05:33.373Z,5448
2023-08-12T10:06:47.611Z,5753
2023-08-12T10:08:01.850Z,5989
2023-08-12T10:09:16.089Z,6220
2023-08-12T10:10:30.327Z,6390
2023-08-12T10:11:44.566Z,6385
2023-08-12T10:12:58.804Z,6139
2023-08-12T10:14:13.043Z,6146
2023-08-12T10:15:27.282Z,6051
2023-08-12T10:16:41.521Z,6045
2023-08-12T10:17:55.759Z,6076
2023-08-12T10:19:09.998Z,5868
2023-08-12T10:20:23.253Z,5591
2023-08-12T10:21:37.492Z,5540
2023-08-12T10:22:51.730Z,5691
2023-08-12T10:24:05.969Z,5711
2023-08-12T10:25:20.208Z,5649
2023-08-12T10:26:34.447Z,5612
2023-08-12T10:27:48.685Z,5435
2023-08-12T10:29:02.924Z,5044
2023-08-12T10:30:17.163Z,4693
2023-08-12T10:31:31.401Z,4285
2023-08-12T10:32:45.640Z,4135
2023-08-12T10:33:59.879Z,3827
2023-08-12T10:35:14.118Z,3648
2023-08-12T10:36:27.373Z,3342
2023-08-12T10:37:41.612Z,3254
2023-08-12T10:38:55.851Z,3277
2023-08-12T10:40:10.089Z,3256
2023-08-12T10:41:24.328Z,3479
2023-08-12T10:42:38.567Z,3962
2023-08-12T10:43:52.806Z,3894
2023-08-12T10:45:07.044Z,3776
2023-08-12T10:46:21.283Z,3760
2023-08-12T10:47:35.522Z,3548
2023-08-12T10:48:49.761Z,3297
2023-08-12T10:50:04.000Z,2766
2023-08-12T10:51:18.238Z,2683
2023-08-12T10:52:31.493Z,3156
2023-08-12T10:53:45.732Z,3738
2023-08-12T10:54:59.970Z,4235
2023-08-12T10:56:14.209Z,4348
2023-08-12T10:57:28.448Z,3919
2023-08-12T10:58:42.687Z,3727
2023-08-12T10:59:55.947Z,3768
2023-08-12T11:01:10.185Z,4294
2023-08-12T11:02:24.424Z,5345
2023-08-12T11:03:38.663Z,5720
2023-08-12T11:04:52.901Z,5588
2023-08-12T11:06:07.140Z,4545
2023-08-12T11:07:21.379Z,3690
2023-08-12T11:08:35.617Z,3052
2023-08-12T11:09:49.856Z,2396
2023-08-12T11:11:04.095Z,2165
2023-08-12T11:12:18.334Z,1915
2023-08-12T11:13:32.572Z,1612
2023-08-12T11:14:46.811Z,1511
2023-08-12T11:16:00.066Z,1600
2023-08-12T11:17:14.304Z,1671
2023-08-12T11:18:28.543Z,1703
2023-08-12T11:19:42.781Z,1781
2023-08-12T11:20:57.020Z,1914
2023-08-12T11:22:11.259Z,2002
2023-08-12T11:23:25.497Z,1825
2023-08-12T11:24:39.736Z,1601
2023-08-12T11:25:53.975Z,1408
2023-08-12T11:27:08.213Z,1301
2023-08-12T11:28:22.452Z,1258
2023-08-12T11:29:36.690Z,1367
2023-08-12T11:30:50.929Z,1659
2023-08-12T11:32:04.184Z,2009
2023-08-12T11:33:18.423Z,2208
2023-08-12T11:34:32.661Z,2177
2023-08-12T11:35:46.900Z,2087
2023-08-12T11:37:01.138Z,2077
2023-08-12T11:38:15.377Z,1995
2023-08-12T11:39:29.615Z,1903
2023-08-12T11:40:43.854Z,1911
2023-08-12T11:41:58.093Z,2129
2023-08-12T11:43:12.331Z,2570
2023-08-12T11:44:26.570Z,3016
2023-08-12T11:45:39.830Z,3220
2023-08-12T11:46:53.090Z,3347
2023-08-12T11:48:06.345Z,3588
2023-08-12T11:49:20.583Z,3964
2023-08-12T11:50:34.822Z,4279
2023-08-12T11:51:49.060Z,4538
2023-08-12T11:53:03.299Z,4723
2023-08-12T11:54:17.538Z,4973
2023-08-12T11:55:31.777Z,5141
2023-08-12T11:56:46.015Z,5347
2023-08-12T11:58:00.254Z,5518
2023-08-12T11:59:14.492Z,5741
2023-08-12T12:00:28.731Z,5996
2023-08-12T12:01:42.970Z,6109
2023-08-12T12:02:57.193Z,6095
2023-08-12T12:04:10.463Z,6156
2023-08-12T12:05:24.702Z,5909
2023-08-12T12:06:38.941Z,5623
2023-08-12T12:07:53.179Z,5278
2023-08-12T12:09:07.418Z,5214
2023-08-12T12:10:21.657Z,5565
2023-08-12T12:11:35.895Z,5954
2023-08-12T12:12:50.134Z,6178
2023-08-12T12:14:04.373Z,5946
2023-08-12T12:15:18.611Z,5623
2023-08-12T12:16:32.850Z,5702
2023-08-12T12:17:47.089Z,5532
2023-08-12T12:19:01.328Z,6211
2023-08-12T12:20:14.583Z,5040
2023-08-12T12:21:28.821Z,6566
2023-08-12T12:22:43.060Z,6206
2023-08-12T12:23:57.299Z,4204
2023-08-12T12:25:11.538Z,3807
2023-08-12T12:26:25.777Z,7027
2023-08-12T12:27:40.015Z,3278
2023-08-12T12:28:54.254Z,4686
2023-08-12T12:30:08.493Z,6074
2023-08-12T12:31:22.732Z,2258
2023-08-12T12:32:36.970Z,3477
2023-08-12T12:33:51.209Z,3464
2023-08-12T12:35:05.448Z,3481
2023-08-12T12:36:18.703Z,3410
2023-08-12T12:37:31.963Z,3296
2023-08-12T12:38:45.218Z,3137
2023-08-12T12:39:59.458Z,3005
2023-08-12T12:41:13.697Z,3127
2023-08-12T12:42:27.936Z,3139
2023-08-12T12:43:42.174Z,2958
2023-08-12T12:44:56.413Z,2827
2023-08-12T12:46:10.652Z,2780
2023-08-12T12:47:24.891Z,2742
2023-08-12T12:48:39.130Z,2729
2023-08-12T12:49:53.369Z,2755
2023-08-12T12:51:07.608Z,2799
2023-08-12T12:52:21.847Z,2887
2023-08-12T12:53:36.086Z,3010
2023-08-12T12:54:49.341Z,3164
2023-08-12T12:56:03.580Z,3404
2023-08-12T12:57:17.818Z,3768
2023-08-12T12:58:32.057Z,4198
2023-08-12T12:59:46.296Z,4658
2023-08-12T13:01:00.535Z,4806
2023-08-12T13:02:13.796Z,4761
2023-08-12T13:03:27.056Z,4752
2023-08-12T13:04:40.311Z,5616
2023-08-12T13:05:54.550Z,3784
2023-08-12T13:07:08.789Z,5611
2023-08-12T13:08:23.027Z,3400
2023-08-12T13:09:37.266Z,4193
2023-08-12T13:10:51.505Z,4021
2023-08-12T13:12:05.743Z,3810
2023-08-12T13:13:19.982Z,4876
2023-08-12T13:14:34.221Z,2454
2023-08-12T13:15:48.460Z,4836
2023-08-12T13:17:02.698Z,4019
2023-08-12T13:18:16.937Z,4240
2023-08-12T13:19:31.176Z,5716
2023-08-12T13:20:44.431Z,5129
2023-08-12T13:21:58.669Z,5299
2023-08-12T13:23:12.908Z,4821
2023-08-12T13:24:27.146Z,5046
2023-08-12T13:25:41.385Z,5654
2023-08-12T13:26:55.624Z,6008
2023-08-12T13:28:09.863Z,5949
2023-08-12T13:29:23.123Z,4478
2023-08-12T13:30:37.362Z,5432
2023-08-12T13:31:50.616Z,4465
2023-08-12T13:33:04.855Z,4540
2023-08-12T13:34:19.094Z,4850
2023-08-12T13:35:33.333Z,4565
2023-08-12T13:36:47.571Z,4566
2023-08-12T13:38:01.810Z,5132
2023-08-12T13:39:16.049Z,5689
2023-08-12T13:40:30.287Z,5384
2023-08-12T13:41:44.526Z,3091
2023-08-12T13:42:58.765Z,8140
2023-08-12T13:44:13.003Z,6834
2023-08-12T13:45:27.242Z,5937
2023-08-12T13:46:41.481Z,5635
2023-08-12T13:47:54.736Z,5354
2023-08-12T13:49:08.974Z,4893
2023-08-12T13:50:23.213Z,4815
2023-08-12T13:51:37.453Z,4837
2023-08-12T13:52:51.692Z,5467
2023-08-12T13:54:05.930Z,6264
2023-08-12T13:55:20.169Z,5970
2023-08-12T13:56:34.408Z,5642
2023-08-12T13:57:48.647Z,5658
2023-08-12T13:59:02.885Z,5602
2023-08-12T14:00:17.125Z,5380
2023-08-12T14:01:31.363Z,5348
2023-08-12T14:02:45.602Z,5300
2023-08-12T14:03:58.857Z,5134
2023-08-12T14:05:13.096Z,5108
2023-08-12T14:06:27.335Z,4911
2023-08-12T14:07:41.573Z,5503
2023-08-12T14:08:55.812Z,4778
2023-08-12T14:10:10.051Z,4265
2023-08-12T14:11:24.290Z,5418
2023-08-12T14:12:38.529Z,5212
2023-08-12T14:13:52.768Z,4289
2023-08-12T14:15:07.006Z,1824
2023-08-12T14:16:21.245Z,4074
2023-08-12T14:17:35.484Z,5282
2023-08-12T14:18:49.723Z,3403
2023-08-12T14:20:02.978Z,3181
2023-08-12T14:21:17.218Z,3232
2023-08-12T14:22:31.457Z,3378
2023-08-12T14:23:45.696Z,3806
2023-08-12T14:24:59.934Z,4349
2023-08-12T14:26:14.173Z,4350
2023-08-12T14:27:28.412Z,4349
2023-08-12T14:28:42.651Z,4883
2023-08-12T14:29:56.889Z,4760
2023-08-12T14:31:11.128Z,4442
2023-08-12T14:32:25.367Z,4059
2023-08-12T14:33:39.606Z,3572
2023-08-12T14:34:53.845Z,3142
2023-08-12T14:36:08.083Z,2784
2023-08-12T14:37:22.322Z,2620
2023-08-12T14:38:35.577Z,2487
2023-08-12T14:39:49.816Z,2620
2023-08-12T14:41:04.054Z,1748
2023-08-12T14:42:18.293Z,3477
2023-08-12T14:43:32.532Z,3644
2023-08-12T14:44:46.771Z,4892
2023-08-12T14:46:01.010Z,5062
2023-08-12T14:47:15.248Z,6059
2023-08-12T14:48:29.487Z,4799
2023-08-12T14:49:43.726Z,5216
2023-08-12T14:50:57.965Z,5502
2023-08-12T14:52:12.204Z,5078
2023-08-12T14:53:26.443Z,4834
2023-08-12T14:54:40.682Z,4540
2023-08-12T14:55:54.921Z,4471
2023-08-12T14:57:09.159Z,4182
2023-08-12T14:58:23.398Z,4044
2023-08-12T14:59:37.637Z,3912
2023-08-12T15:00:50.897Z,3645
2023-08-12T15:02:05.136Z,3402
2023-08-12T15:03:18.391Z,3329
2023-08-12T15:04:32.630Z,3361
2023-08-12T15:05:46.869Z,3210
2023-08-12T15:07:01.108Z,3081
2023-08-12T15:08:15.347Z,3051
2023-08-12T15:09:29.585Z,3055
2023-08-12T15:10:43.824Z,3094
2023-08-12T15:11:58.063Z,2978
2023-08-12T15:13:12.301Z,2839
2023-08-12T15:14:25.562Z,2654
2023-08-12T15:15:39.801Z,2490
2023-08-12T15:16:54.040Z,2531
2023-08-12T15:18:08.279Z,2576
2023-08-12T15:19:22.518Z,2598
2023-08-12T15:20:36.757Z,2438
2023-08-12T15:21:50.995Z,2134
2023-08-12T15:23:05.234Z,1814
2023-08-12T15:24:19.473Z,1509
2023-08-12T15:25:33.711Z,1285
2023-08-12T15:26:47.950Z,1236
2023-08-12T15:28:02.189Z,1272
2023-08-12T15:29:16.427Z,1350
2023-08-12T15:31:44.905Z,1317
2023-08-12T15:32:58.160Z,1201
2023-08-12T15:34:12.398Z,1090
2023-08-12T15:35:26.637Z,972
2023-08-12T15:36:40.876Z,936
2023-08-12T15:37:55.115Z,935
2023-08-12T15:39:09.354Z,954
2023-08-12T15:40:23.593Z,946
2023-08-12T15:41:37.831Z,916
2023-08-12T15:42:52.070Z,851
2023-08-12T15:44:06.309Z,788
2023-08-12T15:45:20.547Z,740
2023-08-12T15:46:34.786Z,707
2023-08-12T15:47:49.025Z,653
2023-08-12T15:49:02.280Z,589
2023-08-12T15:50:16.519Z,514
2023-08-12T15:51:30.757Z,432
2023-08-12T15:52:44.996Z,370
2023-08-12T15:53:59.235Z,316
2023-08-12T15:55:13.474Z,269
2023-08-12T15:56:27.712Z,241
2023-08-12T15:57:41.951Z,217
2023-08-12T15:58:56.190Z,208
2023-08-12T16:00:10.429Z,215
2023-08-12T16:01:24.668Z,222
2023-08-12T16:02:38.907Z,222
2023-08-12T16:03:53.146Z,211
2023-08-12T16:05:06.401Z,207
2023-08-12T16:06:20.640Z,207
2023-08-12T16:07:34.879Z,214
2023-08-12T16:08:49.118Z,227
2023-08-12T16:10:03.358Z,226
2023-08-12T16:11:17.577Z,253
2023-08-12T16:12:31.835Z,278
2023-08-12T16:13:46.074Z,297
2023-08-12T16:15:00.313Z,311
2023-08-12T16:16:14.551Z,319
2023-08-12T16:17:28.790Z,330
2023-08-12T16:18:43.029Z,340
2023-08-12T16:19:57.268Z,359
2023-08-12T16:21:10.523Z,398
2023-08-12T16:22:24.761Z,436
2023-08-12T16:23:39.000Z,484
2023-08-12T16:24:53.238Z,555
2023-08-12T16:26:07.477Z,631
2023-08-12T16:27:21.715Z,691
2023-08-12T16:28:35.954Z,729
2023-08-12T16:29:50.192Z,733
2023-08-12T16:31:04.431Z,722
2023-08-12T16:32:18.670Z,717
2023-08-12T16:33:32.909Z,706
2023-08-12T16:34:47.147Z,684
2023-08-12T16:36:01.386Z,653
2023-08-12T16:37:14.641Z,645
2023-08-12T16:38:28.879Z,646
2023-08-12T16:39:43.118Z,685
2023-08-12T16:40:57.356Z,604
2023-08-12T16:42:11.595Z,390
2023-08-12T16:43:25.834Z,286
2023-08-12T16:44:40.073Z,374
2023-08-12T16:45:54.311Z,531
2023-08-12T16:47:08.550Z,615
2023-08-12T16:48:22.788Z,647
2023-08-12T16:49:37.027Z,668
2023-08-12T16:50:51.266Z,682
2023-08-12T16:52:05.505Z,707
2023-08-12T16:53:18.759Z,761
2023-08-12T16:54:32.998Z,894
2023-08-12T16:55:47.237Z,987
2023-08-12T16:57:01.475Z,1116